createdAt,value
2022-12-04T00:02:54.397Z,100.40
2022-12-04T00:17:54.598Z,104.80
2022-12-04T00:32:54.791Z,98.70
2022-12-04T00:47:54.991Z,93.50
2022-12-04T01:02:55.910Z,102.40
2022-12-04T01:17:56.349Z,102.20
2022-12-04T01:32:57.077Z,100.80
2022-12-04T01:47:57.864Z,106.10
2022-12-04T02:02:58.398Z,109.90
2022-12-04T02:17:58.494Z,115.40
2022-12-04T02:32:59.280Z,118.50
2022-12-04T02:47:59.924Z,117.50
2022-12-04T03:03:00.758Z,115.40
2022-12-04T03:18:01.419Z,127.30
2022-12-04T03:33:02.080Z,131.80
2022-12-04T03:48:03.286Z,128.30
2022-12-04T04:03:04.120Z,133.50
2022-12-04T04:18:04.723Z,154.40
2022-12-04T04:33:05.974Z,133.90
2022-12-04T04:48:06.589Z,128.20
2022-12-04T05:03:06.884Z,139.10
2022-12-04T05:18:06.974Z,116.10
2022-12-04T05:33:07.279Z,140.90
2022-12-04T05:48:07.399Z,133.20
2022-12-04T06:03:08.883Z,121.20
2022-12-04T06:18:10.292Z,130.10
2022-12-04T06:33:10.977Z,119.10
2022-12-04T06:48:11.697Z,127.60
2022-12-04T07:03:12.859Z,115.20
2022-12-04T07:18:15.303Z,136.80
2022-12-04T07:33:16.723Z,122.60
2022-12-04T07:48:16.943Z,131.00
2022-12-04T08:03:17.119Z,123.90
2022-12-04T08:18:17.473Z,139.90
2022-12-04T08:33:18.303Z,151.20
2022-12-04T08:48:18.798Z,139.00
2022-12-04T09:03:22.666Z,127.30
2022-12-04T09:18:25.543Z,146.60
2022-12-04T09:33:25.825Z,144.10
2022-12-04T09:48:26.163Z,133.00
2022-12-04T10:03:26.484Z,142.00
2022-12-04T10:18:27.197Z,128.20
2022-12-04T10:33:27.830Z,127.50
2022-12-04T10:48:28.000Z,118.00
2022-12-04T11:03:28.255Z,120.80
2022-12-04T11:18:28.290Z,108.30
2022-12-04T11:33:29.669Z,107.90
2022-12-04T11:48:31.017Z,111.80
2022-12-04T12:03:33.071Z,105.90
2022-12-04T12:18:33.636Z,100.00
2022-12-04T12:33:34.999Z,100.00
2022-12-04T12:48:35.919Z,103.90
2022-12-04T13:03:36.213Z,91.60
2022-12-04T13:18:38.126Z,97.70
2022-12-04T13:33:39.485Z,104.10
2022-12-04T13:48:39.599Z,98.30
2022-12-04T14:03:40.977Z,103.00
2022-12-04T14:18:42.345Z,98.40
2022-12-04T14:33:43.732Z,105.40
2022-12-04T14:48:44.116Z,101.20
2022-12-04T15:03:44.338Z,111.70
2022-12-04T15:18:45.539Z,107.70
2022-12-04T15:33:46.987Z,118.50
2022-12-04T15:48:48.315Z,120.50
2022-12-04T16:03:49.118Z,118.00
2022-12-04T16:18:49.315Z,123.70
2022-12-04T16:33:49.647Z,130.10
2022-12-04T16:48:49.953Z,124.60
2022-12-04T17:03:50.364Z,145.00
2022-12-04T17:18:50.545Z,141.10
2022-12-04T17:33:50.833Z,157.40
2022-12-04T17:48:50.988Z,175.40
2022-12-04T18:03:51.000Z,193.40
2022-12-04T18:18:52.855Z,212.70
2022-12-04T18:33:52.637Z,209.70
2022-12-04T18:48:52.825Z,246.50
2022-12-04T19:03:54.119Z,246.80
2022-12-04T19:18:54.397Z,245.50
2022-12-04T19:33:54.922Z,220.30
2022-12-04T19:48:55.195Z,221.20
2022-12-04T20:04:01.336Z,230.20
2022-12-04T20:19:02.204Z,225.20
2022-12-04T20:34:02.464Z,218.10
2022-12-04T20:49:02.675Z,191.00
2022-12-04T21:04:03.934Z,177.00
2022-12-04T21:19:05.332Z,195.70
2022-12-04T21:34:08.452Z,171.40
2022-12-04T21:49:09.810Z,185.50
2022-12-04T22:04:11.181Z,182.80
2022-12-04T22:19:11.805Z,191.00
2022-12-04T22:34:13.178Z,207.20
2022-12-04T22:49:13.272Z,188.10
2022-12-04T23:04:15.198Z,208.60
2022-12-04T23:19:16.522Z,185.50
2022-12-04T23:34:17.437Z,210.00
2022-12-04T23:49:18.799Z,209.50
